AF6106 / F-GMZC 7700 Squawk Report (26th of June, 2019)

Aircraft A321 Reg No. F-GMZC Age 24 years old
Model A321 Jet engines 2 First flight 15-02-95
Registered 22-03-95 Rollout 02-95 Delivered 22-03-95
Construction No. 0521 Line No. N/A Series 111
ADSHEX 393322 Airline name Air France Owner N/A
Airfield based Paris-Charles de Gaulle~Val-d'Oise~F First tracked 2017-07-13 08:29:00

Flight history for F-GMZC

Route Flight No Date Playback
Charles De Gaulle (CDG) - Cote D Azur (NCE) AF7712 2019-07-23 21:24:00
Cote D Azur (NCE) - Charles De Gaulle (CDG) AF7709 2019-07-23 20:06:00
Charles De Gaulle (CDG) - Cote D Azur (NCE) AF7706 2019-07-23 15:32:00
Cote D Azur (NCE) - Charles De Gaulle (CDG) AF7703 2019-07-23 14:09:00
Charles De Gaulle (CDG) - Cote D Azur (NCE) AF7702 2019-07-23 11:02:00
Provence (MRS) - Charles De Gaulle (CDG) AF7673 2019-07-23 08:18:00
Orly (ORY) - Provence (MRS) AF6024 2019-07-23 05:17:00
Cote D Azur (NCE) - Orly (ORY) AF6225 2019-07-22 16:10:00
Orly (ORY) - Cote D Azur (NCE) AF6222 2019-07-22 14:46:00
Biarritz-Pays Basque (BIQ) - Orly (ORY) AF7483 2019-07-22 12:18:00
Orly (ORY) - Biarritz-Pays Basque (BIQ) AF7480 2019-07-22 09:28:00
Cote D Azur (NCE) - Orly (ORY) AF6235 2019-07-21 20:31:00
Orly (ORY) - Cote D Azur (NCE) AF6236 2019-07-21 18:10:00
Biarritz-Pays Basque (BIQ) - Orly (ORY) AF7499 2019-07-21 16:50:00
Orly (ORY) - Biarritz-Pays Basque (BIQ) AF7498 2019-07-21 14:15:00
Cote D Azur (NCE) - Orly (ORY) AF6231 2019-07-20 18:48:00
Orly (ORY) - Cote D Azur (NCE) AF6226 2019-07-20 16:27:00
Blagnac (TLS) - Orly (ORY) AF6125 2019-07-20 15:14:00
Charles De Gaulle (CDG) - Blagnac (TLS) AF7518 2019-07-20 09:30:00
Blagnac (TLS) - Charles De Gaulle (CDG) AF7529 2019-07-20 06:28:00
Time Lat Lon Altitude Heading Speed Vertical Rate
2019-06-26 07:07:10 GMT 43.669350 1.324376 1,100 143 136 -704
2019-06-26 07:07:06 GMT 43.671295 1.322256 1,150 142 137 -896
2019-06-26 07:06:42 GMT 43.683781 1.309335 1,450 142 139 -896
2019-06-26 07:06:16 GMT 43.697235 1.295079 1,775 141 151 -320
2019-06-26 07:05:48 GMT 43.715515 1.276139 2,300 142 214 -512
2019-06-26 07:05:45 GMT 43.718323 1.273172 2,350 142 216 -576
2019-06-26 07:03:51 GMT 43.820412 1.213466 3,775 210 238 -1024
2019-06-26 07:03:39 GMT 43.832283 1.222687 3,950 210 244 -960
2019-06-26 07:03:30 GMT 43.841171 1.229447 4,175 209 245 -2496
2019-06-26 07:03:20 GMT 43.852207 1.237793 4,575 209 245 -2048
2019-06-26 07:03:09 GMT 43.862637 1.245575 4,950 209 305 -2176
2019-06-26 07:03:00 GMT 43.871574 1.252311 5,200 209 247 -1664
2019-06-26 07:02:42 GMT 43.889683 1.265847 5,700 209 252 -1728
2019-06-26 07:02:35 GMT 43.897549 1.271733 5,900 209 253 -1728
2019-06-26 07:02:25 GMT 43.907604 1.279188 6,225 209 257 -2048
2019-06-26 07:02:10 GMT 43.923386 1.290894 6,700 208 260 -1664
2019-06-26 07:01:59 GMT 43.935333 1.299644 6,950 208 268 -1088
2019-06-26 07:01:43 GMT 43.953003 1.312611 7,150 209 305 -2176
2019-06-26 07:01:35 GMT 43.962910 1.319863 7,325 209 305 -2176
2019-06-26 07:01:26 GMT 43.972778 1.327057 7,450 208 298 -896
2019-06-26 07:01:16 GMT 43.985825 1.336563 7,575 208 309 -832
2019-06-26 07:01:04 GMT 44.001453 1.347918 8,550 209 331 -2432
2019-06-26 07:00:55 GMT 44.012238 1.355790 7,925 208 329 -1280
2019-06-26 07:00:39 GMT 44.036179 1.373674 8,300 209 305 -2176
2019-06-26 07:00:33 GMT 44.041954 1.377999 8,700 209 310 -2240
2019-06-26 07:00:22 GMT 44.055035 1.387939 9,075 209 291 -2048
2019-06-26 07:00:13 GMT 44.067444 1.397372 9,425 209 282 -2368
2019-06-26 07:00:04 GMT 44.076870 1.404484 9,750 209 279 -1920
2019-06-26 06:59:54 GMT 44.088181 1.413116 10,050 209 283 -1536
2019-06-26 06:59:43 GMT 44.100983 1.422795 10,300 209 281 -1600
2019-06-26 06:59:33 GMT 44.111969 1.431035 10,775 209 283 -1536
2019-06-26 06:59:00 GMT 44.150162 1.458882 11,175 208 298 -768
2019-06-26 06:58:54 GMT 44.158630 1.465014 11,250 208 308 -896
2019-06-26 06:58:47 GMT 44.167740 1.471657 11,350 208 314 -960
2019-06-26 06:58:34 GMT 44.184402 1.483793 11,525 208 327 -832
2019-06-26 06:58:26 GMT 44.195160 1.491656 11,650 208 334 -896
2019-06-26 06:58:15 GMT 44.209728 1.502313 11,825 208 344 -1216
2019-06-26 06:58:06 GMT 44.224411 1.513105 11,975 208 353 -640
2019-06-26 06:57:14 GMT 44.306091 1.573122 13,000 208 401 -3136
2019-06-26 06:57:01 GMT 44.325829 1.587591 13,600 208 403 -2944
2019-06-26 06:56:52 GMT 44.340679 1.598511 14,025 208 405 -3072
2019-06-26 06:56:40 GMT 44.359955 1.612780 14,600 209 408 -2816
2019-06-26 06:56:31 GMT 44.377365 1.625709 15,050 209 412 -2304
2019-06-26 06:56:20 GMT 44.395706 1.639308 15,450 208 417 -2752
2019-06-26 06:56:09 GMT 44.414513 1.653174 15,975 208 420 -3072
2019-06-26 06:56:02 GMT 44.424892 1.660811 16,275 208 423 -2816
2019-06-26 06:55:58 GMT 44.433334 1.666979 16,475 208 424 -2880
2019-06-26 06:55:50 GMT 44.445969 1.676200 16,850 208 425 -3520
2019-06-26 06:55:46 GMT 44.451710 1.680439 17,050 208 425 -3712
2019-06-26 06:55:36 GMT 44.471867 1.695378 17,625 209 429 -2752
2019-06-26 06:55:28 GMT 44.484154 1.704489 17,925 209 433 -2688
2019-06-26 06:55:25 GMT 44.491325 1.709781 18,125 209 433 -2880
2019-06-26 06:55:14 GMT 44.510082 1.723514 18,725 206 434 -4224
2019-06-26 06:55:03 GMT 44.530430 1.735572 19,400 200 434 -2944
2019-06-26 06:54:54 GMT 44.547134 1.742968 19,825 195 438 -3200
2019-06-26 06:54:50 GMT 44.554821 1.745687 19,925 194 439 -3072
2019-06-26 06:54:41 GMT 44.572697 1.751783 20,450 194 443 -2944
2019-06-26 06:54:37 GMT 44.580872 1.754543 20,650 194 445 -3200
2019-06-26 06:54:32 GMT 44.591084 1.757946 20,925 194 448 -3136
2019-06-26 06:54:29 GMT 44.597305 1.760036 21,075 194 448 -3072
2019-06-26 06:54:23 GMT 44.608868 1.763909 21,375 194 450 -3136
2019-06-26 06:54:20 GMT 44.617340 1.766789 21,575 194 452 -3264
2019-06-26 06:54:12 GMT 44.630795 1.771411 21,925 194 454 -3200
2019-06-26 06:54:06 GMT 44.642666 1.775364 22,200 194 457 -3264
2019-06-26 06:53:59 GMT 44.658142 1.780504 22,600 194 460 -3136
2019-06-26 06:53:56 GMT 44.663177 1.782139 22,725 194 462 -3520
2019-06-26 06:53:47 GMT 44.683353 1.788896 23,250 194 466 -3264
2019-06-26 06:53:36 GMT 44.705605 1.796734 24,000 195 471 -4096
2019-06-26 06:53:27 GMT 44.726364 1.804102 25,200 195 467 -5696
2019-06-26 06:53:19 GMT 44.741226 1.809474 25,200 195 467 -5696
2019-06-26 06:53:14 GMT 44.751480 1.813202 25,650 195 463 -5440
2019-06-26 06:53:06 GMT 44.769146 1.819510 26,350 194 461 -4608
2019-06-26 06:53:03 GMT 44.775013 1.821520 26,600 193 460 -4032
2019-06-26 06:52:53 GMT 44.795029 1.827281 27,075 190 461 -2688
2019-06-26 06:52:42 GMT 44.817795 1.832305 27,500 187 463 -1984
2019-06-26 06:52:32 GMT 44.840652 1.836090 27,825 187 463 -1600
2019-06-26 06:52:24 GMT 44.867142 1.840344 28,075 187 461 -960
2019-06-26 06:52:12 GMT 44.888168 1.843741 28,225 187 461 -960
2019-06-26 06:51:59 GMT 44.909969 1.847311 28,400 187 461 -1024
2019-06-26 06:51:48 GMT 44.932526 1.851000 28,575 187 460 -896
2019-06-26 06:51:40 GMT 44.956238 1.854858 28,725 187 461 -896
2019-06-26 06:51:37 GMT 44.956238 1.854858 28,750 187 461 -960
2019-06-26 06:51:28 GMT 44.978027 1.858431 28,900 187 461 -1024
2019-06-26 06:51:18 GMT 44.998627 1.861790 29,075 187 462 -1024
2019-06-26 06:51:14 GMT 45.007507 1.863229 29,100 187 462 -960
2019-06-26 06:51:08 GMT 45.018387 1.864996 29,250 187 461 -896
2019-06-26 06:51:05 GMT 45.026768 1.866403 29,275 187 461 -896
2019-06-26 06:50:58 GMT 45.038910 1.868395 29,375 187 460 -896
2019-06-26 06:50:54 GMT 45.047531 1.869752 29,425 187 460 -896
2019-06-26 06:50:46 GMT 45.065357 1.872633 29,550 187 460 -960
2019-06-26 06:50:41 GMT 45.076252 1.874442 29,650 187 457 -960
2019-06-26 06:50:36 GMT 45.088348 1.876504 29,750 187 461 -1024
2019-06-26 06:50:31 GMT 45.097015 1.877925 29,800 187 461 -1024
2019-06-26 06:50:24 GMT 45.110096 1.880136 29,975 187 460 -1024
2019-06-26 06:50:21 GMT 45.116638 1.881213 29,975 187 460 -960
2019-06-26 06:50:15 GMT 45.129555 1.883284 30,075 187 458 -960
2019-06-26 06:50:12 GMT 45.137741 1.884613 30,125 187 457 -960
2019-06-26 06:50:04 GMT 45.153202 1.887170 30,300 187 457 -896
2019-06-26 06:50:01 GMT 45.160324 1.888309 30,300 187 457 -896
2019-06-26 06:49:57 GMT 45.167446 1.889514 30,350 187 457 -896
2019-06-26 06:49:51 GMT 45.180634 1.891676 30,425 187 457 -960
2019-06-26 06:49:48 GMT 45.185669 1.892526 30,475 187 455 -960
2019-06-26 06:49:41 GMT 45.201553 1.895076 30,600 187 457 -960
2019-06-26 06:49:30 GMT 45.225952 1.899131 30,775 187 458 -960
2019-06-26 06:49:27 GMT 45.230293 1.899831 30,800 187 458 -960
2019-06-26 06:49:19 GMT 45.248032 1.902778 30,975 187 458 -448
2019-06-26 06:49:16 GMT 45.253281 1.903643 30,975 187 458 -448
2019-06-26 06:49:11 GMT 45.264542 1.905539 30,975 187 458 0
2019-06-26 06:49:05 GMT 45.276150 1.907468 30,975 187 458 0
2019-06-26 06:49:00 GMT 45.286716 1.909209 30,975 187 458 0
2019-06-26 06:48:55 GMT 45.297409 1.910902 30,975 187 458 0
2019-06-26 06:48:51 GMT 45.307339 1.912559 31,000 187 458 0
2019-06-26 06:48:45 GMT 45.318375 1.914368 30,975 187 457 0
2019-06-26 06:48:40 GMT 45.329773 1.916199 30,975 187 457 0
2019-06-26 06:48:34 GMT 45.352726 1.919995 31,000 187 458 0
2019-06-26 06:48:29 GMT 45.352726 1.919995 31,000 187 458 0
2019-06-26 06:48:21 GMT 45.368546 1.922607 31,000 187 458 0
2019-06-26 06:48:16 GMT 45.380722 1.924569 31,000 187 458 0
2019-06-26 06:48:10 GMT 45.392250 1.926493 31,000 187 458 0
2019-06-26 06:48:06 GMT 45.400452 1.927839 31,000 187 458 0
2019-06-26 06:48:01 GMT 45.411613 1.929708 31,000 187 458 0
2019-06-26 06:47:57 GMT 45.421555 1.931370 31,000 187 458 0
2019-06-26 06:47:47 GMT 45.442154 1.934771 30,975 187 458 0
2019-06-26 06:47:40 GMT 45.456676 1.937211 31,000 187 458 0
2019-06-26 06:47:34 GMT 45.467571 1.939020 31,000 187 458 0
2019-06-26 06:47:23 GMT 45.492188 1.943076 31,000 187 458 0
2019-06-26 06:47:17 GMT 45.503586 1.944972 31,000 187 459 0
2019-06-26 06:47:13 GMT 45.512169 1.946389 31,000 187 459 0
2019-06-26 06:47:04 GMT 45.530960 1.949550 31,000 187 459 0
2019-06-26 06:46:54 GMT 45.552624 1.953163 31,000 187 459 0
2019-06-26 06:46:44 GMT 45.574455 1.956802 31,000 187 459 0
2019-06-26 06:46:37 GMT 45.588181 1.959117 31,000 187 459 0
2019-06-26 06:46:32 GMT 45.597931 1.960725 31,000 187 459 0
2019-06-26 06:46:28 GMT 45.606308 1.962131 31,000 187 459 0
2019-06-26 06:46:24 GMT 45.616470 1.963806 31,000 187 459 0
2019-06-26 06:46:19 GMT 45.626953 1.965548 31,000 187 459 0
2019-06-26 06:46:12 GMT 45.640652 1.967857 31,025 187 459 0
2019-06-26 06:46:09 GMT 45.647774 1.969093 31,025 187 458 0
2019-06-26 06:46:04 GMT 45.658585 1.970840 31,025 187 458 0
2019-06-26 06:46:00 GMT 45.665882 1.972115 31,025 187 458 0
2019-06-26 06:45:56 GMT 45.674728 1.973557 31,000 187 458 0
2019-06-26 06:45:50 GMT 45.686691 1.975529 31,000 187 459 0
2019-06-26 06:45:44 GMT 45.700150 1.977807 31,000 187 459 0
2019-06-26 06:45:39 GMT 45.709854 1.979482 31,000 187 459 0
2019-06-26 06:45:30 GMT 45.731197 1.983032 31,000 187 458 0
2019-06-26 06:45:23 GMT 45.744415 1.985243 31,000 187 458 0
2019-06-26 06:45:17 GMT 45.755962 1.987152 31,000 187 458 0
2019-06-26 06:45:12 GMT 45.766853 1.988937 31,000 187 458 0
2019-06-26 06:45:07 GMT 45.778679 1.990929 31,000 187 458 0
2019-06-26 06:45:02 GMT 45.789154 1.992714 31,000 187 458 0
2019-06-26 06:44:58 GMT 45.811707 1.996497 31,000 187 458 0
2019-06-26 06:44:51 GMT 45.811707 1.996497 31,000 187 458 0
2019-06-26 06:44:48 GMT 45.818848 1.997703 31,000 187 458 0
2019-06-26 06:44:40 GMT 45.833752 2.000198 31,000 187 457 0
2019-06-26 06:44:36 GMT 45.841873 2.001588 31,000 187 457 0
2019-06-26 06:44:29 GMT 45.857391 2.004134 31,000 187 457 0
2019-06-26 06:44:24 GMT 45.867508 2.005876 31,000 187 456 0
2019-06-26 06:44:19 GMT 45.877697 2.007545 30,975 187 456 0
2019-06-26 06:44:15 GMT 45.886124 2.008987 31,000 187 456 0
2019-06-26 06:44:12 GMT 45.892406 2.010017 31,000 187 456 0
2019-06-26 06:44:08 GMT 45.908699 2.012764 31,000 187 456 0
2019-06-26 06:44:05 GMT 45.908699 2.012764 31,000 187 456 0
2019-06-26 06:43:55 GMT 45.929649 2.016266 31,000 187 456 0
2019-06-26 06:43:43 GMT 45.952972 2.020212 31,000 187 457 0
2019-06-26 06:43:37 GMT 45.965775 2.022377 31,000 187 457 0
2019-06-26 06:43:32 GMT 45.975952 2.024097 31,000 187 456 0
2019-06-26 06:43:28 GMT 45.985882 2.025742 30,975 187 456 0
2019-06-26 06:43:23 GMT 45.995846 2.027458 30,975 187 456 0
2019-06-26 06:43:17 GMT 46.008636 2.029590 30,975 187 456 0
2019-06-26 06:43:13 GMT 46.018890 2.031303 30,975 187 456 0
2019-06-26 06:43:08 GMT 46.029362 2.033089 30,975 187 456 0
2019-06-26 06:43:00 GMT 46.046124 2.035973 30,975 187 455 0
2019-06-26 06:42:56 GMT 46.068420 2.039773 31,000 187 454 0
2019-06-26 06:42:48 GMT 46.068420 2.039773 31,000 187 450 0
2019-06-26 06:42:45 GMT 46.075470 2.040978 31,000 187 453 -64
2019-06-26 06:42:40 GMT 46.086731 2.042854 31,000 187 450 0
2019-06-26 06:42:36 GMT 46.094769 2.044212 31,000 187 449 0
2019-06-26 06:42:31 GMT 46.105011 2.045998 31,000 187 450 0
2019-06-26 06:42:25 GMT 46.116604 2.047920 31,000 187 449 0
2019-06-26 06:42:19 GMT 46.131870 2.050529 31,000 187 449 0
2019-06-26 06:42:16 GMT 46.137596 2.051491 31,000 187 449 0
2019-06-26 06:42:09 GMT 46.149811 2.053572 31,000 187 449 0
2019-06-26 06:42:05 GMT 46.158264 2.054993 31,000 187 449 0
2019-06-26 06:41:56 GMT 46.175583 2.057945 31,000 187 449 0
2019-06-26 06:41:47 GMT 46.196411 2.061477 31,000 187 449 0
2019-06-26 06:41:36 GMT 46.218132 2.065224 31,000 187 450 0
2019-06-26 06:41:26 GMT 46.237453 2.068520 31,000 187 449 0
2019-06-26 06:41:23 GMT 46.244061 2.069618 30,975 187 448 0
2019-06-26 06:41:17 GMT 46.257236 2.071884 31,000 187 449 0
2019-06-26 06:41:14 GMT 46.263428 2.072983 31,000 187 449 0
2019-06-26 06:41:07 GMT 46.277020 2.075317 30,975 187 448 0
2019-06-26 06:41:04 GMT 46.283386 2.076416 30,975 187 448 0
2019-06-26 06:40:53 GMT 46.306210 2.080330 30,975 187 448 0
2019-06-26 06:40:43 GMT 46.327423 2.083986 30,975 187 448 0
2019-06-26 06:40:31 GMT 46.351318 2.088072 30,975 187 447 0
2019-06-26 06:40:21 GMT 46.372780 2.091728 31,000 187 445 0
2019-06-26 06:40:11 GMT 46.393112 2.095240 31,000 187 447 0
2019-06-26 06:40:07 GMT 46.401035 2.096603 31,000 187 446 0
2019-06-26 06:40:04 GMT 46.408676 2.097920 31,000 187 446 0
2019-06-26 06:40:01 GMT 46.413372 2.098732 31,000 187 446 0
2019-06-26 06:39:52 GMT 46.432598 2.102028 31,000 187 446 0
2019-06-26 06:39:49 GMT 46.436554 2.102743 31,000 187 446 0
2019-06-26 06:39:44 GMT 46.447952 2.104686 31,000 187 446 0
2019-06-26 06:39:39 GMT 46.457748 2.106360 31,000 187 446 0
2019-06-26 06:39:36 GMT 46.463516 2.107365 31,000 187 445 0
2019-06-26 06:39:32 GMT 46.473267 2.109040 31,000 187 445 0
2019-06-26 06:39:28 GMT 46.482742 2.110648 31,000 187 445 0
2019-06-26 06:39:22 GMT 46.494419 2.112671 30,975 187 446 64
2019-06-26 06:39:16 GMT 46.504196 2.114319 30,975 187 450 1216
2019-06-26 06:39:11 GMT 46.516068 2.116379 30,975 187 447 512
2019-06-26 06:39:07 GMT 46.524078 2.117749 30,950 187 448 256
2019-06-26 06:38:59 GMT 46.538040 2.120160 30,925 187 447 1024
2019-06-26 06:38:56 GMT 46.546234 2.121567 30,775 187 447 1280
2019-06-26 06:38:51 GMT 46.556290 2.123314 30,775 187 447 1344
2019-06-26 06:38:47 GMT 46.565273 2.124893 30,500 187 448 1280
2019-06-26 06:38:39 GMT 46.582588 2.127846 30,500 187 449 1088
2019-06-26 06:38:35 GMT 46.594803 2.129941 30,375 187 449 1088
2019-06-26 06:38:25 GMT 46.609222 2.132419 30,225 187 450 1216
2019-06-26 06:38:21 GMT 46.617874 2.133960 30,200 187 450 1216
2019-06-26 06:38:17 GMT 46.626022 2.135330 30,075 187 451 1472
2019-06-26 06:38:14 GMT 46.632633 2.136497 29,850 187 451 1472
2019-06-26 06:38:10 GMT 46.640919 2.137939 29,750 187 453 1536
2019-06-26 06:38:07 GMT 46.648132 2.139185 29,825 187 455 1344
2019-06-26 06:38:04 GMT 46.666122 2.142267 29,575 187 454 1600
2019-06-26 06:37:58 GMT 46.666122 2.142267 29,550 187 456 1024
2019-06-26 06:37:54 GMT 46.674866 2.143741 29,525 187 456 1024
2019-06-26 06:37:47 GMT 46.688030 2.146042 29,425 187 456 896
2019-06-26 06:37:43 GMT 46.699219 2.147961 29,350 187 456 896
2019-06-26 06:37:37 GMT 46.709610 2.149770 29,275 187 456 960
2019-06-26 06:37:31 GMT 46.724167 2.152315 29,175 187 455 896
2019-06-26 06:37:27 GMT 46.730484 2.153387 29,125 187 455 896
2019-06-26 06:37:24 GMT 46.738403 2.154794 29,075 187 455 1024
2019-06-26 06:37:16 GMT 46.753716 2.157509 28,025 187 455 1088
2019-06-26 06:37:10 GMT 46.766518 2.159775 28,875 187 455 1088
2019-06-26 06:37:05 GMT 46.775574 2.161292 28,025 187 458 1600
2019-06-26 06:36:59 GMT 46.788574 2.163570 28,550 187 456 1600
2019-06-26 06:36:55 GMT 46.797684 2.165178 28,025 187 458 1600
2019-06-26 06:36:51 GMT 46.807434 2.166852 28,000 187 458 1536
2019-06-26 06:36:48 GMT 46.811554 2.167522 28,000 187 458 1536
2019-06-26 06:36:43 GMT 46.823174 2.169594 28,125 187 459 1408
2019-06-26 06:36:39 GMT 46.830093 2.170805 28,075 187 460 1280
2019-06-26 06:36:36 GMT 46.838516 2.172278 28,000 187 460 832
2019-06-26 06:36:33 GMT 46.843842 2.173164 27,850 187 460 832
2019-06-26 06:36:30 GMT 46.857342 2.175499 27,275 187 460 1280
2019-06-26 06:36:26 GMT 46.857342 2.175499 27,650 187 457 512
2019-06-26 06:36:22 GMT 46.867954 2.177335 27,675 188 459 576
2019-06-26 06:36:19 GMT 46.874039 2.178383 27,675 188 459 576
2019-06-26 06:36:14 GMT 46.883923 2.180082 27,650 187 457 512
2019-06-26 06:36:11 GMT 46.891045 2.181350 27,600 187 459 1152
2019-06-26 06:36:08 GMT 46.896538 2.182335 27,575 187 459 1152
2019-06-26 06:36:03 GMT 46.906219 2.184026 27,500 187 459 1152
2019-06-26 06:35:57 GMT 46.918671 2.186142 27,275 187 458 448
2019-06-26 06:35:52 GMT 46.929497 2.188040 27,225 187 457 512
2019-06-26 06:35:45 GMT 46.945885 2.190927 27,125 188 459 576
2019-06-26 06:35:40 GMT 46.954605 2.192528 27,025 188 458 512
2019-06-26 06:35:35 GMT 46.966927 2.194730 27,025 187 458 448
2019-06-26 06:35:30 GMT 46.979736 2.196922 27,000 187 455 896
2019-06-26 06:35:24 GMT 46.990063 2.198745 26,950 187 455 896
2019-06-26 06:35:19 GMT 47.000244 2.200493 26,700 187 456 1536
2019-06-26 06:35:16 GMT 47.004868 2.201317 26,800 187 455 896
2019-06-26 06:35:13 GMT 47.011093 2.202415 26,800 187 454 896
2019-06-26 06:35:06 GMT 47.027344 2.205299 26,350 187 456 1536
2019-06-26 06:35:03 GMT 47.032982 2.206280 26,650 187 454 960
2019-06-26 06:34:56 GMT 47.049324 2.209167 26,525 187 453 1088
2019-06-26 06:34:53 GMT 47.053986 2.210037 26,475 187 453 1216
2019-06-26 06:34:47 GMT 47.073578 2.213470 26,300 187 454 1280
2019-06-26 06:34:44 GMT 47.073578 2.213470 26,300 187 454 1280
2019-06-26 06:34:40 GMT 47.079803 2.214569 26,225 187 454 1408
2019-06-26 06:34:37 GMT 47.087357 2.215942 26,150 187 455 1408
2019-06-26 06:34:34 GMT 47.094452 2.217178 26,075 187 455 1408
2019-06-26 06:34:31 GMT 47.098854 2.217971 26,000 187 456 1536
2019-06-26 06:34:26 GMT 47.110382 2.219994 25,900 187 456 1536
2019-06-26 06:34:21 GMT 47.120129 2.221703 25,775 188 457 1536
2019-06-26 06:34:13 GMT 47.139076 2.225084 25,425 188 459 1472
2019-06-26 06:34:10 GMT 47.143524 2.225899 25,500 188 459 1408
2019-06-26 06:34:04 GMT 47.155746 2.228165 25,375 188 459 1280
2019-06-26 06:34:00 GMT 47.164352 2.229732 25,275 188 460 1152
2019-06-26 06:33:54 GMT 47.177853 2.232267 25,150 188 459 1088
2019-06-26 06:33:50 GMT 47.185440 2.233746 25,100 188 460 1152
2019-06-26 06:33:43 GMT 47.200790 2.236748 24,750 188 461 896
2019-06-26 06:33:37 GMT 47.212234 2.238945 24,875 188 460 832
2019-06-26 06:33:31 GMT 47.227798 2.241966 24,750 187 460 896
2019-06-26 06:33:28 GMT 47.232273 2.242760 24,725 187 459 896
2019-06-26 06:33:21 GMT 47.246658 2.245155 24,575 186 456 1088
2019-06-26 06:33:17 GMT 47.256134 2.246635 24,575 186 459 832
2019-06-26 06:33:08 GMT 47.273438 2.249245 24,450 186 458 896
2019-06-26 06:33:03 GMT 47.284378 2.250893 24,375 186 458 960
2019-06-26 06:32:59 GMT 47.293072 2.252197 24,250 186 458 960
2019-06-26 06:32:56 GMT 47.299576 2.253227 24,275 186 457 960
2019-06-26 06:32:48 GMT 47.316833 2.255836 24,125 186 457 1024
2019-06-26 06:32:44 GMT 47.325146 2.257057 24,025 186 456 1024
2019-06-26 06:32:37 GMT 47.340363 2.259407 23,900 186 456 1024
2019-06-26 06:32:34 GMT 47.346313 2.260231 23,900 186 456 1024
2019-06-26 06:32:27 GMT 47.361176 2.262479 23,725 186 456 1088
2019-06-26 06:32:24 GMT 47.367882 2.263465 23,650 186 456 1088
2019-06-26 06:32:15 GMT 47.385571 2.266141 23,550 186 455 1088
2019-06-26 06:32:12 GMT 47.393856 2.267409 23,500 186 455 1152
2019-06-26 06:32:06 GMT 47.404129 2.268951 23,325 186 455 1152
2019-06-26 06:32:02 GMT 47.415024 2.270599 23,325 186 455 1152
2019-06-26 06:31:55 GMT 47.427792 2.272480 23,200 186 455 1152
2019-06-26 06:31:50 GMT 47.437756 2.274029 23,125 186 454 1024
2019-06-26 06:31:44 GMT 47.450500 2.275955 23,025 186 453 896
2019-06-26 06:31:41 GMT 47.456360 2.276848 22,825 186 452 704
2019-06-26 06:31:35 GMT 47.470963 2.279045 22,900 186 451 576
2019-06-26 06:31:32 GMT 47.476318 2.279869 22,875 186 451 640
2019-06-26 06:31:29 GMT 47.481766 2.280693 22,800 186 450 832
2019-06-26 06:31:26 GMT 47.496784 2.282973 22,725 186 443 960
2019-06-26 06:31:22 GMT 47.496784 2.282973 22,750 186 449 896
2019-06-26 06:31:18 GMT 47.504105 2.284058 22,700 186 447 896
2019-06-26 06:31:11 GMT 47.519920 2.286494 22,575 186 447 896
2019-06-26 06:31:07 GMT 47.528160 2.287762 22,500 186 447 896
2019-06-26 06:31:01 GMT 47.540680 2.289619 22,400 186 444 832
2019-06-26 06:30:57 GMT 47.548462 2.290855 22,350 186 444 960
2019-06-26 06:30:52 GMT 47.558716 2.292435 22,325 186 443 960
2019-06-26 06:30:46 GMT 47.574757 2.294875 22,225 186 443 1024
2019-06-26 06:30:41 GMT 47.581276 2.295861 22,125 186 442 896
2019-06-26 06:30:38 GMT 47.586319 2.296623 22,100 186 441 832
2019-06-26 06:30:31 GMT 47.601334 2.298889 21,975 186 440 1088
2019-06-26 06:30:27 GMT 47.608833 2.299946 21,400 187 439 1280
2019-06-26 06:30:24 GMT 47.616749 2.301284 21,825 187 439 1280
2019-06-26 06:30:20 GMT 47.629086 2.303185 21,500 187 438 1216
2019-06-26 06:30:12 GMT 47.641514 2.305087 21,575 187 438 1024
2019-06-26 06:30:06 GMT 47.651939 2.306706 21,375 186 412 1472
2019-06-26 06:30:00 GMT 47.663818 2.308571 21,350 186 436 960
2019-06-26 06:29:57 GMT 47.669861 2.309464 21,350 186 436 960
2019-06-26 06:29:53 GMT 47.677826 2.310699 21,275 186 435 1280
2019-06-26 06:29:50 GMT 47.683868 2.311592 20,950 186 429 1152
2019-06-26 06:29:46 GMT 47.693607 2.313045 21,125 186 433 1024
2019-06-26 06:29:42 GMT 47.706825 2.315017 20,950 186 429 1152
2019-06-26 06:29:39 GMT 47.706825 2.315017 21,000 186 432 960
2019-06-26 06:29:34 GMT 47.716278 2.316425 20,925 186 430 1088
2019-06-26 06:29:28 GMT 47.727997 2.318253 20,825 186 429 1152
2019-06-26 06:29:24 GMT 47.735870 2.319420 20,750 186 429 1152
2019-06-26 06:29:20 GMT 47.743603 2.320651 20,675 186 428 1216
2019-06-26 06:29:16 GMT 47.750305 2.321636 20,575 186 427 1216
2019-06-26 06:29:12 GMT 47.758873 2.322975 20,525 186 427 1216
2019-06-26 06:29:09 GMT 47.764984 2.323952 20,450 186 426 1216
2019-06-26 06:29:05 GMT 47.771812 2.325017 20,425 186 425 1088
2019-06-26 06:29:02 GMT 47.778099 2.325932 20,275 186 425 1088
2019-06-26 06:28:57 GMT 47.787922 2.327482 20,250 186 423 832
2019-06-26 06:28:54 GMT 47.793739 2.328397 20,225 186 421 640
2019-06-26 06:28:51 GMT 47.799557 2.329313 20,175 186 421 640
2019-06-26 06:28:48 GMT 47.805542 2.330200 20,025 187 419 704
2019-06-26 06:28:43 GMT 47.815613 2.331779 20,100 187 416 1024
2019-06-26 06:28:38 GMT 47.825592 2.333359 20,025 187 416 1024
2019-06-26 06:28:34 GMT 47.833557 2.334595 19,950 187 415 1152
2019-06-26 06:28:31 GMT 47.838383 2.335369 19,800 186 412 1472
2019-06-26 06:28:27 GMT 47.845779 2.336517 19,800 186 414 1600
2019-06-26 06:28:24 GMT 47.852646 2.337616 19,600 186 414 1664
2019-06-26 06:28:21 GMT 47.857376 2.338327 19,650 186 414 1664
2019-06-26 06:28:17 GMT 47.865009 2.339524 19,325 186 414 1664
2019-06-26 06:28:12 GMT 47.873611 2.340843 19,450 186 413 1664
2019-06-26 06:28:09 GMT 47.882309 2.342148 19,350 186 413 1664
2019-06-26 06:28:06 GMT 47.886051 2.342764 19,050 186 412 1600
2019-06-26 06:28:02 GMT 47.893661 2.343933 18,925 186 413 1728
2019-06-26 06:27:58 GMT 47.901993 2.345238 18,750 186 412 1472
2019-06-26 06:27:55 GMT 47.905380 2.345787 18,950 186 413 1600
2019-06-26 06:27:51 GMT 47.913982 2.347060 18,750 186 412 1600
2019-06-26 06:27:48 GMT 47.920990 2.348190 18,675 186 412 1472
2019-06-26 06:27:44 GMT 47.927444 2.349220 18,675 187 411 1408
2019-06-26 06:27:41 GMT 47.933121 2.350044 18,600 187 411 1408
2019-06-26 06:27:32 GMT 47.959900 2.354233 18,325 186 409 1280
2019-06-26 06:27:27 GMT 47.959900 2.354233 18,300 186 407 1280
2019-06-26 06:27:24 GMT 47.965530 2.354988 18,125 186 407 1216
2019-06-26 06:27:20 GMT 47.974411 2.356430 18,125 187 404 1536
2019-06-26 06:27:13 GMT 47.985443 2.358187 18,000 187 404 1792
2019-06-26 06:27:09 GMT 47.992844 2.359384 17,900 186 404 1664
2019-06-26 06:27:02 GMT 48.009018 2.361855 17,650 186 402 1664
2019-06-26 06:26:59 GMT 48.011837 2.362342 17,425 186 402 1664
2019-06-26 06:26:56 GMT 48.017578 2.363228 17,525 186 402 1664
2019-06-26 06:26:45 GMT 48.037811 2.366318 17,250 186 400 1664
2019-06-26 06:26:38 GMT 48.051041 2.368378 17,050 186 399 1664
2019-06-26 06:26:27 GMT 48.070129 2.371330 16,775 186 398 1728
2019-06-26 06:26:24 GMT 48.075989 2.372223 16,750 186 397 1664
2019-06-26 06:26:19 GMT 48.086884 2.373940 16,450 186 396 1728
2019-06-26 06:26:14 GMT 48.094421 2.375160 16,400 186 395 1728
2019-06-26 06:26:05 GMT 48.110138 2.377579 16,175 186 394 1728
2019-06-26 06:25:55 GMT 48.129822 2.380669 15,950 186 394 1728
2019-06-26 06:25:49 GMT 48.139526 2.382179 15,650 187 392 1600
2019-06-26 06:25:46 GMT 48.144928 2.383003 15,650 187 392 1600
2019-06-26 06:25:43 GMT 48.152206 2.384102 15,550 187 392 1600
2019-06-26 06:25:36 GMT 48.164658 2.386076 15,025 187 389 1536
2019-06-26 06:25:33 GMT 48.170471 2.386991 15,275 186 390 1536
2019-06-26 06:25:26 GMT 48.180866 2.388587 15,150 187 389 1472
2019-06-26 06:25:23 GMT 48.186630 2.389526 15,100 187 388 1408
2019-06-26 06:25:20 GMT 48.191208 2.390231 15,000 187 387 1472
2019-06-26 06:25:15 GMT 48.200329 2.391695 14,875 187 386 1536
2019-06-26 06:25:12 GMT 48.205032 2.392414 14,800 187 384 1536
2019-06-26 06:25:07 GMT 48.214523 2.393935 14,675 187 384 1536
2019-06-26 06:25:04 GMT 48.219788 2.394803 14,600 187 383 1536
2019-06-26 06:25:00 GMT 48.226536 2.395815 14,500 186 383 1536
2019-06-26 06:24:56 GMT 48.234219 2.397043 14,375 187 359 832
2019-06-26 06:24:50 GMT 48.244087 2.398633 14,275 187 381 1600
2019-06-26 06:24:45 GMT 48.262566 2.401525 12,725 187 380 2304
2019-06-26 06:24:40 GMT 48.262566 2.401525 13,950 187 379 1920
2019-06-26 06:24:37 GMT 48.268806 2.402464 13,850 187 379 2112
2019-06-26 06:24:30 GMT 48.281158 2.404457 13,600 187 379 2304
2019-06-26 06:24:25 GMT 48.287334 2.405428 12,200 187 376 1344
2019-06-26 06:24:20 GMT 48.298737 2.407235 13,250 187 380 2176
2019-06-26 06:24:14 GMT 48.307022 2.408541 13,025 187 380 2240
2019-06-26 06:24:09 GMT 48.331467 2.412344 12,675 186 381 1920
2019-06-26 06:24:01 GMT 48.331467 2.412344 12,650 187 380 1664
2019-06-26 06:23:57 GMT 48.336731 2.413189 12,575 187 379 1600
2019-06-26 06:23:50 GMT 48.350552 2.415330 12,375 187 377 1408
2019-06-26 06:23:46 GMT 48.368317 2.418189 12,200 186 375 1344
2019-06-26 06:23:40 GMT 48.368317 2.418189 12,150 187 374 1280
2019-06-26 06:23:37 GMT 48.373444 2.418964 12,075 187 372 1088
2019-06-26 06:23:34 GMT 48.375824 2.419387 12,050 187 371 960
2019-06-26 06:23:30 GMT 48.384861 2.420823 11,975 187 367 768
2019-06-26 06:23:27 GMT 48.395187 2.422485 11,900 187 365 768
2019-06-26 06:23:15 GMT 48.410976 2.425015 11,800 187 357 832
2019-06-26 06:23:06 GMT 48.424335 2.427183 11,675 187 351 832
2019-06-26 06:23:02 GMT 48.429382 2.427979 11,650 187 349 832
2019-06-26 06:22:55 GMT 48.441147 2.429810 11,525 186 344 896
2019-06-26 06:22:51 GMT 48.447556 2.430796 11,475 186 342 896
2019-06-26 06:22:45 GMT 48.458130 2.432486 11,375 186 335 896
2019-06-26 06:22:41 GMT 48.462322 2.433110 11,150 187 334 896
2019-06-26 06:22:33 GMT 48.475777 2.435206 11,200 186 327 896
2019-06-26 06:22:30 GMT 48.480339 2.435857 11,150 186 325 960
2019-06-26 06:22:24 GMT 48.490112 2.437375 11,050 186 319 1088
2019-06-26 06:22:20 GMT 48.496078 2.438261 10,975 186 316 1152
2019-06-26 06:22:16 GMT 48.501022 2.439035 10,925 186 314 1152
2019-06-26 06:22:12 GMT 48.508129 2.440194 10,825 187 311 1152
2019-06-26 06:22:08 GMT 48.511047 2.440655 10,725 187 308 1216
2019-06-26 06:22:05 GMT 48.516724 2.441641 10,700 188 306 1216
2019-06-26 06:22:02 GMT 48.521118 2.442434 10,650 188 304 1280
2019-06-26 06:21:59 GMT 48.524704 2.443229 10,600 197 295 704
2019-06-26 06:21:55 GMT 48.534573 2.445759 10,475 196 296 704
2019-06-26 06:21:52 GMT 48.538422 2.447275 10,450 196 296 704
2019-06-26 06:21:49 GMT 48.538422 2.447275 10,450 200 294 704
2019-06-26 06:21:45 GMT 48.543411 2.450092 10,400 206 290 704
2019-06-26 06:21:42 GMT 48.547562 2.452842 10,375 209 288 768
2019-06-26 06:21:39 GMT 48.550186 2.455163 10,325 211 286 1024
2019-06-26 06:21:36 GMT 48.555405 2.460022 10,225 213 284 1408
2019-06-26 06:21:33 GMT 48.562084 2.466431 10,100 213 281 2112
2019-06-26 06:21:29 GMT 48.562084 2.466431 10,050 213 281 2048
2019-06-26 06:21:24 GMT 48.566738 2.470840 9,900 213 280 2112
2019-06-26 06:21:21 GMT 48.571114 2.475032 9,700 213 279 2240
2019-06-26 06:21:18 GMT 48.573853 2.477628 9,675 213 279 2304
2019-06-26 06:21:15 GMT 48.577103 2.480797 9,550 214 280 2816
2019-06-26 06:21:12 GMT 48.580521 2.483994 9,450 213 278 2368
2019-06-26 06:21:09 GMT 48.583546 2.486958 9,350 213 278 2240
2019-06-26 06:21:06 GMT 48.587688 2.490933 9,200 213 278 2240
2019-06-26 06:21:02 GMT 48.591064 2.494178 9,100 213 277 2176
2019-06-26 06:20:59 GMT 48.594269 2.497277 8,500 213 277 2240
2019-06-26 06:20:55 GMT 48.598801 2.501643 8,825 213 277 2304
2019-06-26 06:20:52 GMT 48.605610 2.508208 8,700 213 277 2368
2019-06-26 06:20:49 GMT 48.605610 2.508208 8,500 213 276 2432
2019-06-26 06:20:45 GMT 48.609940 2.512472 8,450 213 276 2624
2019-06-26 06:20:39 GMT 48.616364 2.518616 8,125 213 276 2560
2019-06-26 06:20:36 GMT 48.620316 2.522489 8,050 214 276 2496
2019-06-26 06:20:31 GMT 48.624252 2.526362 7,750 214 276 2240
2019-06-26 06:20:27 GMT 48.629333 2.531363 7,725 213 275 2624
2019-06-26 06:20:24 GMT 48.632355 2.534321 7,450 213 275 2944
2019-06-26 06:20:20 GMT 48.635788 2.537631 7,350 214 276 3136
2019-06-26 06:20:17 GMT 48.640152 2.541889 7,250 213 277 3136
2019-06-26 06:20:14 GMT 48.644855 2.546515 7,025 214 278 3072
2019-06-26 06:20:08 GMT 48.650951 2.552587 6,750 214 279 2560
2019-06-26 06:20:05 GMT 48.650951 2.552587 6,750 214 279 2560
2019-06-26 06:20:02 GMT 48.656353 2.557935 6,550 214 279 2496
2019-06-26 06:19:59 GMT 48.658997 2.560589 6,450 214 278 2688
2019-06-26 06:19:56 GMT 48.663116 2.564744 6,250 214 278 2688
2019-06-26 06:19:53 GMT 48.665569 2.567187 6,200 214 278 2752
2019-06-26 06:19:48 GMT 48.670551 2.572174 5,925 213 277 2304
2019-06-26 06:19:44 GMT 48.676323 2.577884 5,775 213 277 2304
2019-06-26 06:19:37 GMT 48.683262 2.584606 5,550 212 275 2624
2019-06-26 06:19:34 GMT 48.685913 2.587069 5,475 212 274 2688
2019-06-26 06:19:28 GMT 48.691864 2.592069 4,950 196 272 2368
2019-06-26 06:19:25 GMT 48.698296 2.596243 4,975 196 272 2368
2019-06-26 06:19:21 GMT 48.700607 2.597210 4,950 196 272 2368
2019-06-26 06:19:18 GMT 48.705139 2.598411 4,775 184 269 2240
2019-06-26 06:19:15 GMT 48.708397 2.598773 4,675 179 268 2176
2019-06-26 06:19:11 GMT 48.712727 2.598483 4,550 166 263 1664
2019-06-26 06:19:08 GMT 48.716450 2.597544 4,225 150 253 1344
2019-06-26 06:19:04 GMT 48.724228 2.593785 4,325 157 257 1408
2019-06-26 06:19:01 GMT 48.724228 2.593785 4,300 153 256 1344
2019-06-26 06:18:57 GMT 48.728554 2.590316 4,175 131 242 1024
2019-06-26 06:18:54 GMT 48.731583 2.587136 4,100 135 245 1024
2019-06-26 06:18:51 GMT 48.734894 2.582703 4,075 131 242 1024
2019-06-26 06:18:47 GMT 48.737000 2.578829 4,025 119 236 768
2019-06-26 06:18:44 GMT 48.738796 2.574776 3,975 115 232 704
2019-06-26 06:18:41 GMT 48.741543 2.565019 3,925 107 226 640
2019-06-26 06:18:38 GMT 48.741543 2.565019 3,900 105 225 640
2019-06-26 06:18:34 GMT 48.742332 2.559887 3,875 100 220 896
2019-06-26 06:18:31 GMT 48.742767 2.554885 3,825 93 216 576
2019-06-26 06:18:28 GMT 48.742939 2.550491 3,800 88 212 640
2019-06-26 06:18:24 GMT 48.742676 2.543265 3,725 84 207 768
2019-06-26 06:18:21 GMT 48.742126 2.535095 3,625 84 200 768
2019-06-26 06:18:18 GMT 48.742126 2.535095 3,650 84 199 832
2019-06-26 06:18:15 GMT 48.741917 2.531626 3,625 84 196 768
2019-06-26 06:18:11 GMT 48.741684 2.526133 3,575 84 193 832
2019-06-26 06:18:07 GMT 48.741302 2.521785 3,425 85 185 832
2019-06-26 06:18:04 GMT 48.741123 2.517965 3,475 85 185 832
2019-06-26 06:18:01 GMT 48.740891 2.514062 3,450 85 183 832
2019-06-26 06:17:57 GMT 48.740566 2.507919 3,375 85 178 768
2019-06-26 06:17:52 GMT 48.740238 2.501847 3,325 85 173 768
2019-06-26 06:17:48 GMT 48.740005 2.497221 3,275 85 169 832
2019-06-26 06:17:42 GMT 48.739590 2.489704 3,125 85 165 1792
2019-06-26 06:17:37 GMT 48.739334 2.484530 3,000 85 165 1856
2019-06-26 06:17:34 GMT 48.738937 2.477200 2,875 85 166 1856
2019-06-26 06:17:27 GMT 48.738239 2.467298 2,625 75 161 3008
2019-06-26 06:17:23 GMT 48.738239 2.467298 2,575 82 164 1344
2019-06-26 06:17:16 GMT 48.737492 2.459564 2,425 79 161 1472
2019-06-26 06:17:13 GMT 48.737228 2.456853 2,275 74 160 1472
2019-06-26 06:17:10 GMT 48.736515 2.453493 2,300 74 159 1408
2019-06-26 06:17:04 GMT 48.734848 2.443895 2,125 73 157 1280
2019-06-26 06:17:01 GMT 48.734848 2.443895 2,075 74 156 1408
2019-06-26 06:16:54 GMT 48.733395 2.436580 1,925 73 153 1984
2019-06-26 06:16:50 GMT 48.732605 2.432604 1,825 73 154 2176
2019-06-26 06:16:47 GMT 48.732140 2.430147 1,725 73 153 2560
2019-06-26 06:16:44 GMT 48.731487 2.426750 1,575 74 155 3264
2019-06-26 06:16:40 GMT 48.730591 2.421922 1,225 74 157 3392
2019-06-26 06:16:33 GMT 48.729301 2.414462 1,000 76 163 2304
2019-06-26 06:16:28 GMT 48.728439 2.408964 825 77 162 1984
2019-06-26 06:16:22 GMT 48.727524 2.402837 625 75 160 2432
We lost coverage of the aircraft here for a total of 6 minutes
2019-06-26 06:09:54 GMT 48.730579 2.356532 0 239 3
2019-06-26 06:09:46 GMT 48.730568 2.356515 0 239 5
2019-06-26 06:09:26 GMT 48.730339 2.356127 0 222 5

Making use of Plane Finder data

You are free to use the raw flight data, aircraft information and images provided in this report for your own purposes provided the data is correctly attributed to Plane Finder. We ask that you please credit Plane Finder and link to planefinder.net in close proximity to the content.

Optionally one of the following logos (no smaller then 150x24px) can be used and must link to planefinder.net

Embedding the Plane Finder map

You are welcome to embed the Plane Finder playback map on your website to offer visitors a more interactive experience. We suggest using the following HTML code:

<iframe src="//planefinder.net/data/report/AF6106-F-GMZC-7700-squawk-2019-06-26/map" width="800" height="600" seamless="seamless"></iframe>

Where our data comes from

Plane Finder has a global network of data feeds and antenna radars that receive data broadcast directly from aircraft. The primary technologies used are ADS-B and MLAT. We also show feeds from the FAA and a FLARM glider feed.

Click here to find out more about the Plane Finder network.

How we collect our data